sensor_id;sensor_type;location;lat;lon;timestamp;pressure;altitude;pressure_sealevel;temperature;humidity
12247;BME280;6186;52.022;4.692;2023-04-24T00:01:21;99972.78;;;10.87;100.00
12247;BME280;6186;52.022;4.692;2023-04-24T00:03:46;100000.22;;;11.03;100.00
12247;BME280;6186;52.022;4.692;2023-04-24T00:06:12;99998.47;;;11.02;100.00
12247;BME280;6186;52.022;4.692;2023-04-24T00:08:37;100005.41;;;11.04;100.00
12247;BME280;6186;52.022;4.692;2023-04-24T00:11:02;100010.75;;;11.03;100.00
12247;BME280;6186;52.022;4.692;2023-04-24T00:13:27;100011.56;;;11.03;100.00
12247;BME280;6186;52.022;4.692;2023-04-24T00:15:52;100010.69;;;11.04;100.00
12247;BME280;6186;52.022;4.692;2023-04-24T00:18:18;100007.13;;;11.05;100.00
12247;BME280;6186;52.022;4.692;2023-04-24T00:20:43;100004.44;;;11.07;100.00
12247;BME280;6186;52.022;4.692;2023-04-24T00:23:08;100010.53;;;11.07;100.00
12247;BME280;6186;52.022;4.692;2023-04-24T00:25:34;100015.00;;;11.05;100.00
12247;BME280;6186;52.022;4.692;2023-04-24T00:27:59;100006.13;;;11.08;100.00
12247;BME280;6186;52.022;4.692;2023-04-24T00:30:24;100010.50;;;11.09;100.00
12247;BME280;6186;52.022;4.692;2023-04-24T00:32:49;100008.72;;;11.09;100.00
12247;BME280;6186;52.022;4.692;2023-04-24T00:35:14;100011.22;;;11.12;100.00
12247;BME280;6186;52.022;4.692;2023-04-24T00:37:40;100006.75;;;11.14;100.00
12247;BME280;6186;52.022;4.692;2023-04-24T00:40:05;100011.09;;;11.15;100.00
12247;BME280;6186;52.022;4.692;2023-04-24T00:42:31;100003.13;;;11.17;100.00
12247;BME280;6186;52.022;4.692;2023-04-24T00:44:56;100004.94;;;11.16;100.00
12247;BME280;6186;52.022;4.692;2023-04-24T00:47:21;100014.53;;;11.17;100.00
12247;BME280;6186;52.022;4.692;2023-04-24T00:49:47;100004.06;;;11.16;100.00
12247;BME280;6186;52.022;4.692;2023-04-24T00:52:12;100005.75;;;11.17;100.00
12247;BME280;6186;52.022;4.692;2023-04-24T00:54:38;100016.28;;;11.17;100.00
12247;BME280;6186;52.022;4.692;2023-04-24T00:57:04;100020.72;;;11.16;100.00
12247;BME280;6186;52.022;4.692;2023-04-24T00:59:29;100011.91;;;11.17;100.00
12247;BME280;6186;52.022;4.692;2023-04-24T01:01:55;100013.59;;;11.18;100.00
12247;BME280;6186;52.022;4.692;2023-04-24T01:04:21;100008.41;;;11.17;100.00
12247;BME280;6186;52.022;4.692;2023-04-24T01:06:48;100015.31;;;11.19;100.00
12247;BME280;6186;52.022;4.692;2023-04-24T01:09:14;100017.16;;;11.17;100.00
12247;BME280;6186;52.022;4.692;2023-04-24T01:11:41;100011.16;;;11.14;100.00
12247;BME280;6186;52.022;4.692;2023-04-24T01:14:06;100007.88;;;11.09;100.00
12247;BME280;6186;52.022;4.692;2023-04-24T01:16:32;100012.28;;;11.08;100.00
12247;BME280;6186;52.022;4.692;2023-04-24T01:18:57;100007.91;;;11.07;100.00
12247;BME280;6186;52.022;4.692;2023-04-24T01:21:23;100007.97;;;11.06;100.00
12247;BME280;6186;52.022;4.692;2023-04-24T01:23:51;100015.94;;;11.04;100.00
12247;BME280;6186;52.022;4.692;2023-04-24T01:26:17;100008.13;;;11.03;100.00
12247;BME280;6186;52.022;4.692;2023-04-24T01:28:43;100008.94;;;11.03;100.00
12247;BME280;6186;52.022;4.692;2023-04-24T01:31:08;100014.22;;;11.03;100.00
12247;BME280;6186;52.022;4.692;2023-04-24T01:33:34;100011.78;;;10.99;100.00
12247;BME280;6186;52.022;4.692;2023-04-24T01:35:59;100002.47;;;10.90;100.00
12247;BME280;6186;52.022;4.692;2023-04-24T01:38:24;100015.31;;;10.98;100.00
12247;BME280;6186;52.022;4.692;2023-04-24T01:40:50;100012.88;;;10.93;100.00
12247;BME280;6186;52.022;4.692;2023-04-24T01:43:16;100022.41;;;10.96;100.00
12247;BME280;6186;52.022;4.692;2023-04-24T01:45:41;100014.50;;;10.97;100.00
12247;BME280;6186;52.022;4.692;2023-04-24T01:48:07;100020.66;;;10.96;100.00
12247;BME280;6186;52.022;4.692;2023-04-24T01:50:32;100011.06;;;10.95;100.00
12247;BME280;6186;52.022;4.692;2023-04-24T01:52:57;100015.44;;;10.95;100.00
12247;BME280;6186;52.022;4.692;2023-04-24T01:55:23;100022.50;;;10.94;100.00
12247;BME280;6186;52.022;4.692;2023-04-24T01:57:48;100013.75;;;10.94;100.00
12247;BME280;6186;52.022;4.692;2023-04-24T02:00:14;100013.78;;;10.92;100.00
12247;BME280;6186;52.022;4.692;2023-04-24T02:02:40;100008.00;;;10.84;100.00
12247;BME280;6186;52.022;4.692;2023-04-24T02:05:08;100018.31;;;10.89;100.00
12247;BME280;6186;52.022;4.692;2023-04-24T02:07:34;100003.63;;;10.83;100.00
12247;BME280;6186;52.022;4.692;2023-04-24T02:49:36;100015.59;;;10.92;100.00
12247;BME280;6186;52.022;4.692;2023-04-24T02:52:01;100010.34;;;10.90;100.00
12247;BME280;6186;52.022;4.692;2023-04-24T02:54:26;100006.09;;;10.88;100.00
12247;BME280;6186;52.022;4.692;2023-04-24T02:56:52;100006.88;;;10.90;100.00
12247;BME280;6186;52.022;4.692;2023-04-24T02:59:17;99994.88;;;10.83;100.00
12247;BME280;6186;52.022;4.692;2023-04-24T03:01:42;100001.72;;;10.87;100.00
12247;BME280;6186;52.022;4.692;2023-04-24T03:04:07;99986.31;;;10.78;100.00
12247;BME280;6186;52.022;4.692;2023-04-24T03:06:33;100000.28;;;10.80;100.00
12247;BME280;6186;52.022;4.692;2023-04-24T03:08:58;99995.38;;;10.71;100.00
12247;BME280;6186;52.022;4.692;2023-04-24T03:11:23;99991.94;;;10.69;100.00
12247;BME280;6186;52.022;4.692;2023-04-24T03:13:48;100006.72;;;10.71;100.00
12247;BME280;6186;52.022;4.692;2023-04-24T03:16:14;100009.50;;;10.68;100.00
12247;BME280;6186;52.022;4.692;2023-04-24T03:18:39;100008.69;;;10.66;100.00
12247;BME280;6186;52.022;4.692;2023-04-24T03:21:04;100006.19;;;10.63;100.00
12247;BME280;6186;52.022;4.692;2023-04-24T03:23:29;100006.44;;;10.57;100.00
12247;BME280;6186;52.022;4.692;2023-04-24T03:25:55;100009.13;;;10.56;100.00
12247;BME280;6186;52.022;4.692;2023-04-24T03:28:20;99999.84;;;10.46;100.00
12247;BME280;6186;52.022;4.692;2023-04-24T03:30:45;100009.56;;;10.43;100.00
12247;BME280;6186;52.022;4.692;2023-04-24T03:33:11;100014.16;;;10.38;100.00
12247;BME280;6186;52.022;4.692;2023-04-24T03:35:36;100013.28;;;10.38;100.00
12247;BME280;6186;52.022;4.692;2023-04-24T03:38:01;100007.16;;;10.37;100.00
12247;BME280;6186;52.022;4.692;2023-04-24T03:40:27;100022.16;;;10.35;100.00
12247;BME280;6186;52.022;4.692;2023-04-24T03:42:52;100018.78;;;10.32;100.00
12247;BME280;6186;52.022;4.692;2023-04-24T03:45:18;100028.50;;;10.30;100.00
12247;BME280;6186;52.022;4.692;2023-04-24T03:47:43;100020.59;;;10.30;100.00
12247;BME280;6186;52.022;4.692;2023-04-24T03:50:09;100027.59;;;10.31;100.00
12247;BME280;6186;52.022;4.692;2023-04-24T03:52:34;100034.56;;;10.32;100.00
12247;BME280;6186;52.022;4.692;2023-04-24T03:54:59;100031.88;;;10.33;100.00
12247;BME280;6186;52.022;4.692;2023-04-24T03:57:24;100036.28;;;10.33;100.00
12247;BME280;6186;52.022;4.692;2023-04-24T03:59:49;100031.94;;;10.32;100.00
12247;BME280;6186;52.022;4.692;2023-04-24T04:02:15;100036.28;;;10.33;100.00
12247;BME280;6186;52.022;4.692;2023-04-24T04:04:40;100035.44;;;10.32;100.00
12247;BME280;6186;52.022;4.692;2023-04-24T04:07:05;100028.34;;;10.34;100.00
12247;BME280;6186;52.022;4.692;2023-04-24T04:09:30;100036.16;;;10.36;100.00
12247;BME280;6186;52.022;4.692;2023-04-24T04:11:56;100035.31;;;10.35;100.00
12247;BME280;6186;52.022;4.692;2023-04-24T04:14:22;100043.94;;;10.39;100.00
12247;BME280;6186;52.022;4.692;2023-04-24T04:16:47;100042.09;;;10.41;100.00
12247;BME280;6186;52.022;4.692;2023-04-24T04:19:12;100046.34;;;10.45;100.00
12247;BME280;6186;52.022;4.692;2023-04-24T04:21:38;100053.34;;;10.46;100.00
12247;BME280;6186;52.022;4.692;2023-04-24T04:24:03;100054.13;;;10.48;100.00
12247;BME280;6186;52.022;4.692;2023-04-24T04:26:28;100056.78;;;10.48;100.00
12247;BME280;6186;52.022;4.692;2023-04-24T04:28:53;100063.72;;;10.49;100.00
12247;BME280;6186;52.022;4.692;2023-04-24T04:31:20;100067.28;;;10.48;100.00
12247;BME280;6186;52.022;4.692;2023-04-24T04:33:45;100069.97;;;10.47;100.00
12247;BME280;6186;52.022;4.692;2023-04-24T04:36:10;100073.44;;;10.47;100.00
12247;BME280;6186;52.022;4.692;2023-04-24T04:38:35;100072.66;;;10.45;100.00
12247;BME280;6186;52.022;4.692;2023-04-24T04:41:01;100088.50;;;10.43;100.00
12247;BME280;6186;52.022;4.692;2023-04-24T04:43:26;100100.78;;;10.43;100.00
12247;BME280;6186;52.022;4.692;2023-04-24T04:45:52;100088.56;;;10.42;100.00
12247;BME280;6186;52.022;4.692;2023-04-24T04:48:17;100100.84;;;10.41;100.00
12247;BME280;6186;52.022;4.692;2023-04-24T04:50:43;100103.41;;;10.43;100.00
12247;BME280;6186;52.022;4.692;2023-04-24T04:53:08;100104.28;;;10.43;100.00
12247;BME280;6186;52.022;4.692;2023-04-24T04:55:33;100106.84;;;10.45;100.00
12247;BME280;6186;52.022;4.692;2023-04-24T04:57:59;100092.16;;;10.39;100.00
12247;BME280;6186;52.022;4.692;2023-04-24T05:00:24;100112.06;;;10.47;100.00
12247;BME280;6186;52.022;4.692;2023-04-24T05:02:49;100121.75;;;10.46;100.00
12247;BME280;6186;52.022;4.692;2023-04-24T05:05:14;100124.38;;;10.46;100.00
12247;BME280;6186;52.022;4.692;2023-04-24T05:07:40;100123.44;;;10.47;100.00
12247;BME280;6186;52.022;4.692;2023-04-24T05:10:05;100126.13;;;10.46;100.00
12247;BME280;6186;52.022;4.692;2023-04-24T05:12:31;100141.81;;;10.49;100.00
12247;BME280;6186;52.022;4.692;2023-04-24T05:14:56;100148.13;;;10.45;100.00
12247;BME280;6186;52.022;4.692;2023-04-24T05:17:21;100155.13;;;10.44;100.00
12247;BME280;6186;52.022;4.692;2023-04-24T05:19:46;100162.22;;;10.42;100.00
12247;BME280;6186;52.022;4.692;2023-04-24T05:22:12;100169.19;;;10.43;100.00
12247;BME280;6186;52.022;4.692;2023-04-24T05:24:37;100176.34;;;10.39;100.00
12247;BME280;6186;52.022;4.692;2023-04-24T05:27:03;100193.03;;;10.38;100.00
12247;BME280;6186;52.022;4.692;2023-04-24T05:29:28;100193.25;;;10.32;100.00
12247;BME280;6186;52.022;4.692;2023-04-24T05:31:54;100208.16;;;10.32;100.00
12247;BME280;6186;52.022;4.692;2023-04-24T05:34:19;100214.44;;;10.28;100.00
12247;BME280;6186;52.022;4.692;2023-04-24T05:36:44;100217.25;;;10.23;100.00
12247;BME280;6186;52.022;4.692;2023-04-24T05:39:09;100230.41;;;10.22;100.00
12247;BME280;6186;52.022;4.692;2023-04-24T05:41:35;100241.91;;;10.19;100.00
12247;BME280;6186;52.022;4.692;2023-04-24T05:44:00;100242.06;;;10.15;100.00
12247;BME280;6186;52.022;4.692;2023-04-24T05:46:25;100249.94;;;10.15;100.00
12247;BME280;6186;52.022;4.692;2023-04-24T05:48:50;100264.03;;;10.14;100.00
12247;BME280;6186;52.022;4.692;2023-04-24T05:51:16;100257.94;;;10.12;100.00
12247;BME280;6186;52.022;4.692;2023-04-24T05:53:41;100270.22;;;10.11;100.00
12247;BME280;6186;52.022;4.692;2023-04-24T05:56:06;100286.09;;;10.07;100.00
12247;BME280;6186;52.022;4.692;2023-04-24T05:58:31;100294.09;;;10.04;100.00
12247;BME280;6186;52.022;4.692;2023-04-24T06:00:57;100296.78;;;10.02;100.00
12247;BME280;6186;52.022;4.692;2023-04-24T06:03:22;100295.97;;;10.00;100.00
12247;BME280;6186;52.022;4.692;2023-04-24T06:05:49;100312.69;;;9.98;100.00
12247;BME280;6186;52.022;4.692;2023-04-24T06:08:15;100325.00;;;9.97;100.00
12247;BME280;6186;52.022;4.692;2023-04-24T06:10:40;100314.50;;;9.96;100.00
12247;BME280;6186;52.022;4.692;2023-04-24T06:13:05;100325.03;;;9.96;100.00
12247;BME280;6186;52.022;4.692;2023-04-24T06:15:31;100318.25;;;9.89;100.00
12247;BME280;6186;52.022;4.692;2023-04-24T06:17:56;100341.63;;;9.98;100.00
12247;BME280;6186;52.022;4.692;2023-04-24T06:20:22;100347.78;;;9.97;100.00
12247;BME280;6186;52.022;4.692;2023-04-24T06:22:47;100342.66;;;9.92;100.00
12247;BME280;6186;52.022;4.692;2023-04-24T06:25:12;100354.75;;;9.98;100.00
12247;BME280;6186;52.022;4.692;2023-04-24T06:27:37;100362.66;;;9.98;100.00
12247;BME280;6186;52.022;4.692;2023-04-24T06:30:03;100375.78;;;9.98;100.00
12247;BME280;6186;52.022;4.692;2023-04-24T06:32:28;100390.72;;;9.97;100.00
12247;BME280;6186;52.022;4.692;2023-04-24T06:34:53;100390.69;;;9.99;100.00
12247;BME280;6186;52.022;4.692;2023-04-24T06:37:20;100396.81;;;9.98;100.00
12247;BME280;6186;52.022;4.692;2023-04-24T06:39:45;100402.25;;;9.92;100.00
12247;BME280;6186;52.022;4.692;2023-04-24T06:42:11;100410.13;;;9.93;100.00
12247;BME280;6186;52.022;4.692;2023-04-24T06:44:36;100409.31;;;9.91;100.00
12247;BME280;6186;52.022;4.692;2023-04-24T06:47:01;100428.53;;;9.92;100.00
12247;BME280;6186;52.022;4.692;2023-04-24T06:49:26;100432.16;;;9.89;100.00
12247;BME280;6186;52.022;4.692;2023-04-24T06:51:51;100437.47;;;9.88;100.00
12247;BME280;6186;52.022;4.692;2023-04-24T06:54:17;100445.34;;;9.88;100.00
12247;BME280;6186;52.022;4.692;2023-04-24T06:56:42;100443.59;;;9.87;100.00
12247;BME280;6186;52.022;4.692;2023-04-24T06:59:07;100444.44;;;9.89;100.00
12247;BME280;6186;52.022;4.692;2023-04-24T07:01:32;100451.38;;;9.90;100.00
12247;BME280;6186;52.022;4.692;2023-04-24T07:03:58;100449.63;;;9.90;100.00
12247;BME280;6186;52.022;4.692;2023-04-24T07:06:23;100448.75;;;9.91;100.00
12247;BME280;6186;52.022;4.692;2023-04-24T07:08:48;100462.72;;;9.93;100.00
12247;BME280;6186;52.022;4.692;2023-04-24T07:11:13;100469.72;;;9.93;100.00
12247;BME280;6186;52.022;4.692;2023-04-24T07:13:38;100475.88;;;9.92;100.00
12247;BME280;6186;52.022;4.692;2023-04-24T07:16:04;100482.16;;;9.86;100.00
12247;BME280;6186;52.022;4.692;2023-04-24T07:18:29;100496.06;;;9.91;100.00
12247;BME280;6186;52.022;4.692;2023-04-24T07:20:55;100500.50;;;9.89;100.00
12247;BME280;6186;52.022;4.692;2023-04-24T07:23:20;100496.13;;;9.88;100.00
12247;BME280;6186;52.022;4.692;2023-04-24T07:25:45;100508.44;;;9.86;100.00
12247;BME280;6186;52.022;4.692;2023-04-24T07:28:10;100506.75;;;9.85;100.00
12247;BME280;6186;52.022;4.692;2023-04-24T07:30:36;100512.94;;;9.83;100.00
12247;BME280;6186;52.022;4.692;2023-04-24T07:33:01;100521.69;;;9.83;100.00
12247;BME280;6186;52.022;4.692;2023-04-24T07:35:26;100527.72;;;9.87;100.00
12247;BME280;6186;52.022;4.692;2023-04-24T07:37:54;100528.63;;;9.86;100.00
12247;BME280;6186;52.022;4.692;2023-04-24T07:40:20;100524.31;;;9.83;100.00
12247;BME280;6186;52.022;4.692;2023-04-24T07:42:45;100535.56;;;9.88;100.00
12247;BME280;6186;52.022;4.692;2023-04-24T07:45:10;100548.78;;;9.85;100.00
12247;BME280;6186;52.022;4.692;2023-04-24T07:47:36;100540.19;;;9.80;100.00
12247;BME280;6186;52.022;4.692;2023-04-24T07:50:01;100553.91;;;9.91;100.00
12247;BME280;6186;52.022;4.692;2023-04-24T07:52:26;100553.84;;;9.93;100.00
12247;BME280;6186;52.022;4.692;2023-04-24T07:54:52;100562.59;;;9.93;100.00
12247;BME280;6186;52.022;4.692;2023-04-24T07:57:17;100562.66;;;9.90;100.00
12247;BME280;6186;52.022;4.692;2023-04-24T07:59:42;100569.69;;;9.90;100.00
12247;BME280;6186;52.022;4.692;2023-04-24T08:02:07;100571.34;;;9.94;100.00
12247;BME280;6186;52.022;4.692;2023-04-24T08:04:33;100575.59;;;9.98;100.00
12247;BME280;6186;52.022;4.692;2023-04-24T08:06:58;100587.03;;;9.97;100.00
12247;BME280;6186;52.022;4.692;2023-04-24T08:09:23;100598.53;;;9.93;100.00
12247;BME280;6186;52.022;4.692;2023-04-24T08:11:49;100597.75;;;9.89;100.00
12247;BME280;6186;52.022;4.692;2023-04-24T08:14:14;100604.94;;;9.83;100.00
12247;BME280;6186;52.022;4.692;2023-04-24T08:16:39;100603.97;;;9.87;100.00
12247;BME280;6186;52.022;4.692;2023-04-24T08:19:04;100610.97;;;9.86;100.00
12247;BME280;6186;52.022;4.692;2023-04-24T08:21:30;100614.47;;;9.87;100.00
12247;BME280;6186;52.022;4.692;2023-04-24T08:23:55;100621.56;;;9.83;100.00
12247;BME280;6186;52.022;4.692;2023-04-24T08:26:20;100630.34;;;9.82;100.00
12247;BME280;6186;52.022;4.692;2023-04-24T08:28:45;100629.56;;;9.80;100.00
12247;BME280;6186;52.022;4.692;2023-04-24T08:31:11;100645.28;;;9.82;100.00
12247;BME280;6186;52.022;4.692;2023-04-24T08:33:36;100652.16;;;9.87;100.00
12247;BME280;6186;52.022;4.692;2023-04-24T08:36:05;100651.19;;;9.90;100.00
12247;BME280;6186;52.022;4.692;2023-04-24T08:38:30;100655.50;;;9.92;100.00
12247;BME280;6186;52.022;4.692;2023-04-24T08:40:58;100659.00;;;9.93;100.00
12247;BME280;6186;52.022;4.692;2023-04-24T08:43:24;100658.91;;;9.97;100.00
12247;BME280;6186;52.022;4.692;2023-04-24T08:45:50;100653.75;;;9.93;100.00
12247;BME280;6186;52.022;4.692;2023-04-24T08:48:16;100669.28;;;10.02;100.00
12247;BME280;6186;52.022;4.692;2023-04-24T08:50:41;100668.31;;;10.06;100.00
12247;BME280;6186;52.022;4.692;2023-04-24T08:53:08;100663.97;;;10.03;100.00
12247;BME280;6186;52.022;4.692;2023-04-24T08:55:34;100677.94;;;10.05;100.00
12247;BME280;6186;52.022;4.692;2023-04-24T08:57:59;100676.19;;;10.06;100.00
12247;BME280;6186;52.022;4.692;2023-04-24T09:00:25;100688.53;;;10.04;100.00
12247;BME280;6186;52.022;4.692;2023-04-24T09:02:53;100690.47;;;9.97;100.00
12247;BME280;6186;52.022;4.692;2023-04-24T09:05:20;100682.66;;;9.93;100.00
12247;BME280;6186;52.022;4.692;2023-04-24T09:07:49;100691.44;;;9.92;100.00
12247;BME280;6186;52.022;4.692;2023-04-24T09:10:18;100688.81;;;9.93;100.00
12247;BME280;6186;52.022;4.692;2023-04-24T09:12:43;100694.59;;;10.06;100.00
12247;BME280;6186;52.022;4.692;2023-04-24T09:15:09;100698.81;;;10.13;100.00
12247;BME280;6186;52.022;4.692;2023-04-24T09:17:35;100694.41;;;10.15;100.00
12247;BME280;6186;52.022;4.692;2023-04-24T09:20:01;100697.78;;;10.20;100.00
12247;BME280;6186;52.022;4.692;2023-04-24T09:22:29;100703.13;;;10.17;100.00
12247;BME280;6186;52.022;4.692;2023-04-24T09:25:21;100720.78;;;10.12;100.00
12247;BME280;6186;52.022;4.692;2023-04-24T09:27:46;100722.66;;;10.05;100.00
12247;BME280;6186;52.022;4.692;2023-04-24T09:30:13;100732.47;;;9.99;100.00
12247;BME280;6186;52.022;4.692;2023-04-24T09:32:38;100729.91;;;9.97;100.00
12247;BME280;6186;52.022;4.692;2023-04-24T09:37:39;100730.59;;;10.04;100.00
12247;BME280;6186;52.022;4.692;2023-04-24T09:40:22;100736.56;;;10.12;100.00
12247;BME280;6186;52.022;4.692;2023-04-24T09:42:55;100739.88;;;10.18;100.00
12247;BME280;6186;52.022;4.692;2023-04-24T09:45:21;100731.84;;;10.24;100.00
12247;BME280;6186;52.022;4.692;2023-04-24T09:47:51;100735.31;;;10.26;100.00
12247;BME280;6186;52.022;4.692;2023-04-24T09:50:16;100737.09;;;10.24;100.00
12247;BME280;6186;52.022;4.692;2023-04-24T09:52:44;100750.03;;;10.33;100.00
12247;BME280;6186;52.022;4.692;2023-04-24T09:55:21;100751.41;;;10.48;100.00
12247;BME280;6186;52.022;4.692;2023-04-24T09:57:48;100756.34;;;10.60;100.00
12247;BME280;6186;52.022;4.692;2023-04-24T10:00:17;100760.50;;;10.69;100.00
12247;BME280;6186;52.022;4.692;2023-04-24T10:02:43;100756.94;;;10.70;100.00
12247;BME280;6186;52.022;4.692;2023-04-24T10:05:11;100769.38;;;10.65;100.00
12247;BME280;6186;52.022;4.692;2023-04-24T10:07:37;100767.81;;;10.58;100.00
12247;BME280;6186;52.022;4.692;2023-04-24T10:10:03;100770.63;;;10.52;100.00
12247;BME280;6186;52.022;4.692;2023-04-24T10:12:29;100785.53;;;10.51;100.00
12247;BME280;6186;52.022;4.692;2023-04-24T10:14:56;100789.22;;;10.44;100.00
12247;BME280;6186;52.022;4.692;2023-04-24T10:17:22;100789.47;;;10.33;100.00
12247;BME280;6186;52.022;4.692;2023-04-24T10:19:49;100799.19;;;10.31;100.00
12247;BME280;6186;52.022;4.692;2023-04-24T10:22:14;100801.94;;;10.27;100.00
12247;BME280;6186;52.022;4.692;2023-04-24T10:24:40;100802.81;;;10.26;100.00
12247;BME280;6186;52.022;4.692;2023-04-24T10:27:07;100793.13;;;10.29;100.00
12247;BME280;6186;52.022;4.692;2023-04-24T10:29:35;100798.22;;;10.35;100.00
12247;BME280;6186;52.022;4.692;2023-04-24T10:32:00;100800.81;;;10.37;100.00
12247;BME280;6186;52.022;4.692;2023-04-24T10:34:27;100787.66;;;10.37;100.00
12247;BME280;6186;52.022;4.692;2023-04-24T10:36:54;100793.81;;;10.36;100.00
12247;BME280;6186;52.022;4.692;2023-04-24T10:39:21;100798.16;;;10.38;100.00
12247;BME280;6186;52.022;4.692;2023-04-24T10:41:48;100796.09;;;10.50;100.00
12247;BME280;6186;52.022;4.692;2023-04-24T10:44:15;100798.44;;;10.60;100.00
12247;BME280;6186;52.022;4.692;2023-04-24T10:46:45;100798.25;;;10.68;100.00
12247;BME280;6186;52.022;4.692;2023-04-24T10:49:11;100803.97;;;10.83;100.00
12247;BME280;6186;52.022;4.692;2023-04-24T10:59:45;100819.16;;;11.67;100.00
12247;BME280;6186;52.022;4.692;2023-04-24T11:02:10;100822.25;;;11.51;100.00
12247;BME280;6186;52.022;4.692;2023-04-24T11:04:39;100831.53;;;11.34;100.00
12247;BME280;6186;52.022;4.692;2023-04-24T11:07:04;100835.47;;;11.18;100.00
12247;BME280;6186;52.022;4.692;2023-04-24T11:09:30;100844.47;;;11.11;100.00
12247;BME280;6186;52.022;4.692;2023-04-24T11:12:07;100848.94;;;11.08;100.00
12247;BME280;6186;52.022;4.692;2023-04-24T11:17:31;100850.56;;;11.13;100.00
12247;BME280;6186;52.022;4.692;2023-04-24T11:20:16;100844.22;;;11.51;100.00
12247;BME280;6186;52.022;4.692;2023-04-24T11:22:42;100829.16;;;11.85;100.00
12247;BME280;6186;52.022;4.692;2023-04-24T11:25:09;100846.81;;;12.39;100.00
12247;BME280;6186;52.022;4.692;2023-04-24T11:27:42;100843.22;;;12.92;100.00
12247;BME280;6186;52.022;4.692;2023-04-24T11:30:09;100841.53;;;13.15;100.00
12247;BME280;6186;52.022;4.692;2023-04-24T11:32:36;100850.59;;;13.33;100.00
12247;BME280;6186;52.022;4.692;2023-04-24T11:37:36;100859.44;;;13.32;100.00
12247;BME280;6186;52.022;4.692;2023-04-24T11:40:02;100860.97;;;13.14;100.00
12247;BME280;6186;52.022;4.692;2023-04-24T11:42:28;100863.16;;;13.00;100.00
12247;BME280;6186;52.022;4.692;2023-04-24T11:44:58;100862.47;;;12.95;100.00
12247;BME280;6186;52.022;4.692;2023-04-24T11:47:30;100870.53;;;12.92;100.00
12247;BME280;6186;52.022;4.692;2023-04-24T11:49:57;100870.81;;;12.83;100.00
12247;BME280;6186;52.022;4.692;2023-04-24T11:52:22;100885.00;;;12.81;100.00
12247;BME280;6186;52.022;4.692;2023-04-24T11:54:49;100875.50;;;12.75;100.00
12247;BME280;6186;52.022;4.692;2023-04-24T11:57:14;100862.69;;;12.63;100.00
12247;BME280;6186;52.022;4.692;2023-04-24T11:59:39;100881.25;;;12.88;100.00
12247;BME280;6186;52.022;4.692;2023-04-24T12:02:05;100889.31;;;12.83;100.00
12247;BME280;6186;52.022;4.692;2023-04-24T12:04:39;100890.31;;;12.79;100.00
12247;BME280;6186;52.022;4.692;2023-04-24T12:07:04;100884.06;;;12.82;100.00
12247;BME280;6186;52.022;4.692;2023-04-24T12:09:40;100892.88;;;13.08;100.00
12247;BME280;6186;52.022;4.692;2023-04-24T12:12:06;100895.31;;;13.14;100.00
12247;BME280;6186;52.022;4.692;2023-04-24T12:14:31;100914.13;;;13.05;100.00
12247;BME280;6186;52.022;4.692;2023-04-24T12:16:56;100922.13;;;13.02;100.00
12247;BME280;6186;52.022;4.692;2023-04-24T12:19:22;100917.69;;;13.04;100.00
12247;BME280;6186;52.022;4.692;2023-04-24T12:22:04;100907.09;;;13.04;100.00
12247;BME280;6186;52.022;4.692;2023-04-24T12:24:30;100921.81;;;13.13;100.00
12247;BME280;6186;52.022;4.692;2023-04-24T12:26:56;100922.97;;;13.04;100.00
12247;BME280;6186;52.022;4.692;2023-04-24T12:29:22;100926.81;;;12.94;100.00
12247;BME280;6186;52.022;4.692;2023-04-24T12:31:48;100929.03;;;12.80;100.00
12247;BME280;6186;52.022;4.692;2023-04-24T12:34:20;100923.50;;;12.62;100.00
12247;BME280;6186;52.022;4.692;2023-04-24T12:36:45;100916.91;;;12.47;100.00
12247;BME280;6186;52.022;4.692;2023-04-24T12:39:17;100937.03;;;12.51;100.00
12247;BME280;6186;52.022;4.692;2023-04-24T12:42:09;100936.88;;;12.56;100.00
12247;BME280;6186;52.022;4.692;2023-04-24T12:44:35;100933.38;;;12.55;100.00
12247;BME280;6186;52.022;4.692;2023-04-24T12:47:01;100945.69;;;12.56;100.00
12247;BME280;6186;52.022;4.692;2023-04-24T12:49:27;100930.50;;;12.63;100.00
12247;BME280;6186;52.022;4.692;2023-04-24T12:51:53;100956.03;;;12.90;100.00
12247;BME280;6186;52.022;4.692;2023-04-24T12:54:18;100940.44;;;13.08;100.00
12247;BME280;6186;52.022;4.692;2023-04-24T12:56:43;100926.22;;;13.12;100.00
12247;BME280;6186;52.022;4.692;2023-04-24T12:59:09;100945.91;;;13.29;100.00
12247;BME280;6186;52.022;4.692;2023-04-24T13:01:34;100944.34;;;13.48;100.00
12247;BME280;6186;52.022;4.692;2023-04-24T13:03:59;100946.69;;;13.57;100.00
12247;BME280;6186;52.022;4.692;2023-04-24T13:06:24;100942.50;;;13.51;100.00
12247;BME280;6186;52.022;4.692;2023-04-24T13:08:50;100948.06;;;13.42;100.00
12247;BME280;6186;52.022;4.692;2023-04-24T13:11:15;100949.91;;;13.40;100.00
12247;BME280;6186;52.022;4.692;2023-04-24T13:13:40;100962.16;;;13.43;100.00
12247;BME280;6186;52.022;4.692;2023-04-24T13:16:05;100953.53;;;13.38;100.00
12247;BME280;6186;52.022;4.692;2023-04-24T13:18:31;100951.72;;;13.40;100.00
12247;BME280;6186;52.022;4.692;2023-04-24T13:20:56;100956.66;;;13.49;100.00
12247;BME280;6186;52.022;4.692;2023-04-24T13:23:22;100958.19;;;13.56;100.00
12247;BME280;6186;52.022;4.692;2023-04-24T13:25:47;100957.22;;;13.58;100.00
12247;BME280;6186;52.022;4.692;2023-04-24T13:28:12;100966.16;;;13.54;100.00
12247;BME280;6186;52.022;4.692;2023-04-24T13:30:38;100963.03;;;13.43;100.00
12247;BME280;6186;52.022;4.692;2023-04-24T13:33:03;100966.97;;;13.32;100.00
12247;BME280;6186;52.022;4.692;2023-04-24T13:35:28;100968.41;;;13.40;100.00
12247;BME280;6186;52.022;4.692;2023-04-24T13:37:54;100967.13;;;13.52;100.00
12247;BME280;6186;52.022;4.692;2023-04-24T13:40:19;100964.28;;;13.58;100.00
12247;BME280;6186;52.022;4.692;2023-04-24T13:42:44;100976.00;;;13.51;100.00